sensor_id;sensor_type;location;lat;lon;timestamp;temperature;humidity
38860;DHT22;24609;48.316;16.174;2022-10-16T00:01:11;11.30;99.90
38860;DHT22;24609;48.316;16.174;2022-10-16T00:03:38;11.20;99.90
38860;DHT22;24609;48.316;16.174;2022-10-16T00:06:05;11.20;99.90
38860;DHT22;24609;48.316;16.174;2022-10-16T00:08:31;11.20;99.90
38860;DHT22;24609;48.316;16.174;2022-10-16T00:11:14;11.20;99.90
38860;DHT22;24609;48.316;16.174;2022-10-16T00:13:41;11.20;99.90
38860;DHT22;24609;48.316;16.174;2022-10-16T00:16:08;11.30;99.90
38860;DHT22;24609;48.316;16.174;2022-10-16T00:18:34;11.30;99.90
38860;DHT22;24609;48.316;16.174;2022-10-16T00:21:09;11.30;99.90
38860;DHT22;24609;48.316;16.174;2022-10-16T00:23:35;11.10;99.90
38860;DHT22;24609;48.316;16.174;2022-10-16T00:26:04;10.90;99.90
38860;DHT22;24609;48.316;16.174;2022-10-16T00:28:30;10.90;99.90
38860;DHT22;24609;48.316;16.174;2022-10-16T00:30:57;10.80;99.90
38860;DHT22;24609;48.316;16.174;2022-10-16T00:33:23;10.80;99.90
38860;DHT22;24609;48.316;16.174;2022-10-16T00:35:49;10.70;99.90
38860;DHT22;24609;48.316;16.174;2022-10-16T00:38:16;10.80;99.90
38860;DHT22;24609;48.316;16.174;2022-10-16T00:40:41;10.80;99.90
38860;DHT22;24609;48.316;16.174;2022-10-16T00:49:14;10.60;99.90
38860;DHT22;24609;48.316;16.174;2022-10-16T00:51:41;10.50;99.90
38860;DHT22;24609;48.316;16.174;2022-10-16T00:54:14;10.40;99.90
38860;DHT22;24609;48.316;16.174;2022-10-16T00:56:41;10.40;99.90
38860;DHT22;24609;48.316;16.174;2022-10-16T00:59:15;10.50;99.90
38860;DHT22;24609;48.316;16.174;2022-10-16T01:01:41;10.70;99.90
38860;DHT22;24609;48.316;16.174;2022-10-16T01:04:07;10.80;99.90
38860;DHT22;24609;48.316;16.174;2022-10-16T01:09:23;10.80;99.90
38860;DHT22;24609;48.316;16.174;2022-10-16T01:12:06;10.80;99.90
38860;DHT22;24609;48.316;16.174;2022-10-16T01:14:58;10.80;99.90
38860;DHT22;24609;48.316;16.174;2022-10-16T01:17:28;10.80;99.90
38860;DHT22;24609;48.316;16.174;2022-10-16T01:28:11;10.90;99.90
38860;DHT22;24609;48.316;16.174;2022-10-16T01:30:40;10.90;99.90
38860;DHT22;24609;48.316;16.174;2022-10-16T01:33:15;10.90;99.90
38860;DHT22;24609;48.316;16.174;2022-10-16T01:35:46;10.80;99.90
38860;DHT22;24609;48.316;16.174;2022-10-16T01:40:51;10.80;99.90
38860;DHT22;24609;48.316;16.174;2022-10-16T01:43:22;10.90;99.90
38860;DHT22;24609;48.316;16.174;2022-10-16T01:45:48;11.00;99.90
38860;DHT22;24609;48.316;16.174;2022-10-16T01:48:17;10.90;99.90
38860;DHT22;24609;48.316;16.174;2022-10-16T01:50:57;11.00;99.90
38860;DHT22;24609;48.316;16.174;2022-10-16T01:53:25;11.00;99.90
38860;DHT22;24609;48.316;16.174;2022-10-16T01:55:52;11.00;99.90
38860;DHT22;24609;48.316;16.174;2022-10-16T01:58:20;11.00;99.90
38860;DHT22;24609;48.316;16.174;2022-10-16T02:00:47;10.80;99.90
38860;DHT22;24609;48.316;16.174;2022-10-16T02:03:16;10.90;99.90
38860;DHT22;24609;48.316;16.174;2022-10-16T02:05:47;10.90;99.90
38860;DHT22;24609;48.316;16.174;2022-10-16T02:08:15;11.00;99.90
38860;DHT22;24609;48.316;16.174;2022-10-16T02:10:41;11.00;99.90
38860;DHT22;24609;48.316;16.174;2022-10-16T02:15:51;11.00;99.90
38860;DHT22;24609;48.316;16.174;2022-10-16T02:18:17;11.00;99.90
38860;DHT22;24609;48.316;16.174;2022-10-16T02:20:57;11.00;99.90
38860;DHT22;24609;48.316;16.174;2022-10-16T02:23:45;11.10;99.90
38860;DHT22;24609;48.316;16.174;2022-10-16T02:26:17;11.10;99.90
38860;DHT22;24609;48.316;16.174;2022-10-16T02:28:53;11.10;99.90
38860;DHT22;24609;48.316;16.174;2022-10-16T02:31:26;11.20;99.90
38860;DHT22;24609;48.316;16.174;2022-10-16T02:33:55;11.20;99.90
38860;DHT22;24609;48.316;16.174;2022-10-16T02:36:23;11.30;99.90
38860;DHT22;24609;48.316;16.174;2022-10-16T02:38:49;11.40;99.90
38860;DHT22;24609;48.316;16.174;2022-10-16T02:41:15;11.40;99.90
38860;DHT22;24609;48.316;16.174;2022-10-16T02:43:41;11.40;99.90
38860;DHT22;24609;48.316;16.174;2022-10-16T02:46:07;11.30;99.90
38860;DHT22;24609;48.316;16.174;2022-10-16T02:48:33;11.30;99.90
38860;DHT22;24609;48.316;16.174;2022-10-16T02:50:58;11.40;99.90
38860;DHT22;24609;48.316;16.174;2022-10-16T02:53:24;11.40;99.90
38860;DHT22;24609;48.316;16.174;2022-10-16T02:55:50;11.40;99.90
38860;DHT22;24609;48.316;16.174;2022-10-16T02:58:15;11.40;99.90
38860;DHT22;24609;48.316;16.174;2022-10-16T03:00:41;11.50;99.90
38860;DHT22;24609;48.316;16.174;2022-10-16T03:03:07;11.50;99.90
38860;DHT22;24609;48.316;16.174;2022-10-16T03:05:33;11.50;99.90
38860;DHT22;24609;48.316;16.174;2022-10-16T03:07:59;11.50;99.90
38860;DHT22;24609;48.316;16.174;2022-10-16T03:10:26;11.50;99.90
38860;DHT22;24609;48.316;16.174;2022-10-16T03:12:52;11.50;99.90
38860;DHT22;24609;48.316;16.174;2022-10-16T03:15:17;11.60;99.90
38860;DHT22;24609;48.316;16.174;2022-10-16T03:17:43;11.60;99.90
38860;DHT22;24609;48.316;16.174;2022-10-16T03:20:09;11.50;99.90
38860;DHT22;24609;48.316;16.174;2022-10-16T03:22:35;11.60;99.90
38860;DHT22;24609;48.316;16.174;2022-10-16T03:25:00;11.60;99.90
38860;DHT22;24609;48.316;16.174;2022-10-16T03:27:26;11.70;99.90
38860;DHT22;24609;48.316;16.174;2022-10-16T03:29:52;11.70;99.90
38860;DHT22;24609;48.316;16.174;2022-10-16T03:32:17;11.70;99.90
38860;DHT22;24609;48.316;16.174;2022-10-16T03:34:43;11.70;99.90
38860;DHT22;24609;48.316;16.174;2022-10-16T03:37:09;11.70;99.90
38860;DHT22;24609;48.316;16.174;2022-10-16T03:39:35;11.70;99.90
38860;DHT22;24609;48.316;16.174;2022-10-16T03:42:01;11.60;99.90
38860;DHT22;24609;48.316;16.174;2022-10-16T03:44:26;11.60;99.90
38860;DHT22;24609;48.316;16.174;2022-10-16T03:46:52;11.60;99.90
38860;DHT22;24609;48.316;16.174;2022-10-16T03:49:18;11.70;99.90
38860;DHT22;24609;48.316;16.174;2022-10-16T03:51:43;11.70;99.90
38860;DHT22;24609;48.316;16.174;2022-10-16T03:54:10;11.80;99.90
38860;DHT22;24609;48.316;16.174;2022-10-16T03:56:35;11.80;99.90
38860;DHT22;24609;48.316;16.174;2022-10-16T03:59:01;11.70;99.90
38860;DHT22;24609;48.316;16.174;2022-10-16T04:01:27;11.70;99.90
38860;DHT22;24609;48.316;16.174;2022-10-16T04:03:53;11.80;99.90
38860;DHT22;24609;48.316;16.174;2022-10-16T04:06:18;11.80;99.90
38860;DHT22;24609;48.316;16.174;2022-10-16T04:08:44;11.70;99.90
38860;DHT22;24609;48.316;16.174;2022-10-16T04:11:10;11.70;99.90
38860;DHT22;24609;48.316;16.174;2022-10-16T04:13:36;11.70;99.90
38860;DHT22;24609;48.316;16.174;2022-10-16T04:16:02;11.60;99.90
38860;DHT22;24609;48.316;16.174;2022-10-16T04:18:28;11.70;99.90
38860;DHT22;24609;48.316;16.174;2022-10-16T04:20:54;11.70;99.90
38860;DHT22;24609;48.316;16.174;2022-10-16T04:23:20;11.70;99.90
38860;DHT22;24609;48.316;16.174;2022-10-16T04:25:45;11.70;99.90
38860;DHT22;24609;48.316;16.174;2022-10-16T04:28:11;11.80;99.90
38860;DHT22;24609;48.316;16.174;2022-10-16T04:30:40;11.70;99.90
38860;DHT22;24609;48.316;16.174;2022-10-16T04:33:07;11.70;99.90
38860;DHT22;24609;48.316;16.174;2022-10-16T04:35:33;11.60;99.90
38860;DHT22;24609;48.316;16.174;2022-10-16T04:37:59;11.60;99.90
38860;DHT22;24609;48.316;16.174;2022-10-16T04:40:25;11.60;99.90
38860;DHT22;24609;48.316;16.174;2022-10-16T04:42:50;11.50;99.90
38860;DHT22;24609;48.316;16.174;2022-10-16T04:45:16;11.60;99.90
38860;DHT22;24609;48.316;16.174;2022-10-16T04:47:42;11.60;99.90
38860;DHT22;24609;48.316;16.174;2022-10-16T04:50:08;11.70;99.90
38860;DHT22;24609;48.316;16.174;2022-10-16T04:52:33;11.60;99.90
38860;DHT22;24609;48.316;16.174;2022-10-16T04:54:59;11.60;99.90
38860;DHT22;24609;48.316;16.174;2022-10-16T04:57:28;11.70;99.90
38860;DHT22;24609;48.316;16.174;2022-10-16T04:59:54;11.80;99.90
38860;DHT22;24609;48.316;16.174;2022-10-16T05:02:20;11.80;99.90
38860;DHT22;24609;48.316;16.174;2022-10-16T05:04:46;11.60;99.90
38860;DHT22;24609;48.316;16.174;2022-10-16T05:07:11;11.50;99.90
38860;DHT22;24609;48.316;16.174;2022-10-16T05:09:37;11.60;99.90
38860;DHT22;24609;48.316;16.174;2022-10-16T05:12:03;11.70;99.90
38860;DHT22;24609;48.316;16.174;2022-10-16T05:14:29;11.70;99.90
38860;DHT22;24609;48.316;16.174;2022-10-16T05:16:55;11.60;99.90
38860;DHT22;24609;48.316;16.174;2022-10-16T05:19:20;11.50;99.90
38860;DHT22;24609;48.316;16.174;2022-10-16T05:21:46;11.50;99.90
38860;DHT22;24609;48.316;16.174;2022-10-16T05:24:11;11.50;99.90
38860;DHT22;24609;48.316;16.174;2022-10-16T05:26:37;11.50;99.90
38860;DHT22;24609;48.316;16.174;2022-10-16T05:29:03;11.50;99.90
38860;DHT22;24609;48.316;16.174;2022-10-16T05:31:29;11.60;99.90
38860;DHT22;24609;48.316;16.174;2022-10-16T05:33:59;11.60;99.90
38860;DHT22;24609;48.316;16.174;2022-10-16T05:36:25;11.60;99.90
38860;DHT22;24609;48.316;16.174;2022-10-16T05:38:51;11.50;99.90
38860;DHT22;24609;48.316;16.174;2022-10-16T05:41:17;11.70;99.90
38860;DHT22;24609;48.316;16.174;2022-10-16T05:43:47;11.70;99.90
38860;DHT22;24609;48.316;16.174;2022-10-16T05:46:13;11.70;99.90
38860;DHT22;24609;48.316;16.174;2022-10-16T05:48:39;11.70;99.90
38860;DHT22;24609;48.316;16.174;2022-10-16T05:51:11;11.70;99.90
38860;DHT22;24609;48.316;16.174;2022-10-16T05:53:38;11.70;99.90
38860;DHT22;24609;48.316;16.174;2022-10-16T05:56:05;11.70;99.90
38860;DHT22;24609;48.316;16.174;2022-10-16T05:58:36;11.70;99.90
38860;DHT22;24609;48.316;16.174;2022-10-16T06:01:05;11.70;99.90
38860;DHT22;24609;48.316;16.174;2022-10-16T06:03:31;11.70;99.90
38860;DHT22;24609;48.316;16.174;2022-10-16T06:05:56;11.80;99.90
38860;DHT22;24609;48.316;16.174;2022-10-16T06:08:22;11.90;99.90
38860;DHT22;24609;48.316;16.174;2022-10-16T06:10:49;11.90;99.90
38860;DHT22;24609;48.316;16.174;2022-10-16T06:13:15;12.00;99.90
38860;DHT22;24609;48.316;16.174;2022-10-16T06:15:42;12.10;99.90
38860;DHT22;24609;48.316;16.174;2022-10-16T06:18:11;12.10;99.90
38860;DHT22;24609;48.316;16.174;2022-10-16T06:20:37;12.10;99.90
38860;DHT22;24609;48.316;16.174;2022-10-16T06:23:03;12.30;99.90
38860;DHT22;24609;48.316;16.174;2022-10-16T06:25:30;12.40;99.90
38860;DHT22;24609;48.316;16.174;2022-10-16T06:27:56;12.50;99.90
38860;DHT22;24609;48.316;16.174;2022-10-16T06:30:22;12.60;99.90
38860;DHT22;24609;48.316;16.174;2022-10-16T06:32:48;12.70;99.90
38860;DHT22;24609;48.316;16.174;2022-10-16T06:35:14;12.80;99.90
38860;DHT22;24609;48.316;16.174;2022-10-16T06:37:39;12.80;99.90
38860;DHT22;24609;48.316;16.174;2022-10-16T06:40:05;12.70;99.90
38860;DHT22;24609;48.316;16.174;2022-10-16T06:42:31;12.70;99.90
38860;DHT22;24609;48.316;16.174;2022-10-16T06:44:57;12.80;99.90
38860;DHT22;24609;48.316;16.174;2022-10-16T06:47:22;12.80;99.90
38860;DHT22;24609;48.316;16.174;2022-10-16T06:49:48;12.80;99.90
38860;DHT22;24609;48.316;16.174;2022-10-16T06:52:14;12.80;99.90
38860;DHT22;24609;48.316;16.174;2022-10-16T06:54:39;12.90;99.90
38860;DHT22;24609;48.316;16.174;2022-10-16T06:57:05;13.00;99.90
38860;DHT22;24609;48.316;16.174;2022-10-16T06:59:31;13.00;99.90
38860;DHT22;24609;48.316;16.174;2022-10-16T07:01:56;13.20;99.90
38860;DHT22;24609;48.316;16.174;2022-10-16T07:04:22;13.40;99.90
38860;DHT22;24609;48.316;16.174;2022-10-16T07:06:48;13.70;99.90
38860;DHT22;24609;48.316;16.174;2022-10-16T07:09:13;13.70;99.90
38860;DHT22;24609;48.316;16.174;2022-10-16T07:11:40;14.10;99.90
38860;DHT22;24609;48.316;16.174;2022-10-16T07:14:15;14.20;99.90
38860;DHT22;24609;48.316;16.174;2022-10-16T07:16:41;14.20;99.90
38860;DHT22;24609;48.316;16.174;2022-10-16T07:19:07;14.10;99.90
38860;DHT22;24609;48.316;16.174;2022-10-16T07:21:34;13.90;99.90
38860;DHT22;24609;48.316;16.174;2022-10-16T07:24:01;13.70;99.90
38860;DHT22;24609;48.316;16.174;2022-10-16T07:26:28;13.60;99.90
38860;DHT22;24609;48.316;16.174;2022-10-16T07:28:55;13.50;99.90
38860;DHT22;24609;48.316;16.174;2022-10-16T07:31:22;13.40;99.90
38860;DHT22;24609;48.316;16.174;2022-10-16T07:33:49;13.30;99.90
38860;DHT22;24609;48.316;16.174;2022-10-16T07:36:16;13.40;99.90
38860;DHT22;24609;48.316;16.174;2022-10-16T07:38:43;13.60;99.90
38860;DHT22;24609;48.316;16.174;2022-10-16T07:41:11;13.70;99.90
38860;DHT22;24609;48.316;16.174;2022-10-16T07:43:38;14.10;99.90
38860;DHT22;24609;48.316;16.174;2022-10-16T07:46:03;14.40;99.90
38860;DHT22;24609;48.316;16.174;2022-10-16T07:48:31;14.10;99.90
38860;DHT22;24609;48.316;16.174;2022-10-16T07:50:58;14.10;99.90
38860;DHT22;24609;48.316;16.174;2022-10-16T07:53:24;14.10;99.90
38860;DHT22;24609;48.316;16.174;2022-10-16T07:55:50;14.30;99.90
38860;DHT22;24609;48.316;16.174;2022-10-16T07:58:16;14.30;99.90
38860;DHT22;24609;48.316;16.174;2022-10-16T08:00:41;14.40;99.90
38860;DHT22;24609;48.316;16.174;2022-10-16T08:03:08;14.40;99.90
38860;DHT22;24609;48.316;16.174;2022-10-16T08:05:34;14.70;99.90
38860;DHT22;24609;48.316;16.174;2022-10-16T08:08:00;14.90;99.90
38860;DHT22;24609;48.316;16.174;2022-10-16T08:10:27;14.60;99.90
38860;DHT22;24609;48.316;16.174;2022-10-16T08:12:53;14.70;99.90
38860;DHT22;24609;48.316;16.174;2022-10-16T08:15:19;15.20;99.90
38860;DHT22;24609;48.316;16.174;2022-10-16T08:17:57;15.80;99.90
38860;DHT22;24609;48.316;16.174;2022-10-16T08:20:23;16.60;99.90
38860;DHT22;24609;48.316;16.174;2022-10-16T08:22:49;16.60;99.90
38860;DHT22;24609;48.316;16.174;2022-10-16T08:25:15;16.70;99.90
38860;DHT22;24609;48.316;16.174;2022-10-16T08:27:40;16.70;99.90
38860;DHT22;24609;48.316;16.174;2022-10-16T08:30:07;16.10;99.90
38860;DHT22;24609;48.316;16.174;2022-10-16T08:32:32;16.20;99.90
38860;DHT22;24609;48.316;16.174;2022-10-16T08:34:58;16.50;99.90
38860;DHT22;24609;48.316;16.174;2022-10-16T08:37:24;16.80;99.90
38860;DHT22;24609;48.316;16.174;2022-10-16T08:39:50;16.80;99.90
38860;DHT22;24609;48.316;16.174;2022-10-16T08:42:29;17.00;99.90
38860;DHT22;24609;48.316;16.174;2022-10-16T08:45:12;17.50;99.90
38860;DHT22;24609;48.316;16.174;2022-10-16T08:50:27;18.40;99.90
38860;DHT22;24609;48.316;16.174;2022-10-16T08:52:54;19.10;99.90
38860;DHT22;24609;48.316;16.174;2022-10-16T08:57:55;19.90;99.90
38860;DHT22;24609;48.316;16.174;2022-10-16T09:00:20;20.00;99.90
38860;DHT22;24609;48.316;16.174;2022-10-16T09:17:52;17.60;99.90
38860;DHT22;24609;48.316;16.174;2022-10-16T09:20:37;17.60;99.90
38860;DHT22;24609;48.316;16.174;2022-10-16T09:25:31;17.40;99.90
38860;DHT22;24609;48.316;16.174;2022-10-16T09:27:57;17.50;99.90
38860;DHT22;24609;48.316;16.174;2022-10-16T09:30:27;17.60;99.90
38860;DHT22;24609;48.316;16.174;2022-10-16T09:32:55;17.40;99.90
38860;DHT22;24609;48.316;16.174;2022-10-16T09:37:57;17.60;99.90
38860;DHT22;24609;48.316;16.174;2022-10-16T09:40:32;17.90;99.90
38860;DHT22;24609;48.316;16.174;2022-10-16T09:45:37;19.00;99.90
38860;DHT22;24609;48.316;16.174;2022-10-16T09:48:11;19.50;99.90
38860;DHT22;24609;48.316;16.174;2022-10-16T09:50:37;20.80;99.90
38860;DHT22;24609;48.316;16.174;2022-10-16T09:53:14;21.70;99.90
38860;DHT22;24609;48.316;16.174;2022-10-16T09:55:53;21.80;99.90
38860;DHT22;24609;48.316;16.174;2022-10-16T09:58:23;21.80;99.90
38860;DHT22;24609;48.316;16.174;2022-10-16T10:00:52;23.10;99.90
38860;DHT22;24609;48.316;16.174;2022-10-16T10:03:44;24.40;99.90
38860;DHT22;24609;48.316;16.174;2022-10-16T10:11:58;21.70;99.90
38860;DHT22;24609;48.316;16.174;2022-10-16T10:16:51;21.50;99.90
38860;DHT22;24609;48.316;16.174;2022-10-16T10:19:20;22.40;99.90
38860;DHT22;24609;48.316;16.174;2022-10-16T10:21:47;25.80;99.90
38860;DHT22;24609;48.316;16.174;2022-10-16T10:24:14;25.70;99.90
38860;DHT22;24609;48.316;16.174;2022-10-16T10:27:06;27.00;96.90
38860;DHT22;24609;48.316;16.174;2022-10-16T10:32:40;28.00;92.40
38860;DHT22;24609;48.316;16.174;2022-10-16T10:38:57;27.80;92.80
38860;DHT22;24609;48.316;16.174;2022-10-16T10:46:41;29.80;87.30
38860;DHT22;24609;48.316;16.174;2022-10-16T10:49:19;29.70;86.60
38860;DHT22;24609;48.316;16.174;2022-10-16T10:54:41;31.30;79.60
38860;DHT22;24609;48.316;16.174;2022-10-16T10:57:19;32.30;68.40
38860;DHT22;24609;48.316;16.174;2022-10-16T11:00:42;30.60;71.60
38860;DHT22;24609;48.316;16.174;2022-10-16T11:06:07;32.10;71.80
38860;DHT22;24609;48.316;16.174;2022-10-16T11:11:32;30.40;70.80
38860;DHT22;24609;48.316;16.174;2022-10-16T11:14:08;28.50;80.50
38860;DHT22;24609;48.316;16.174;2022-10-16T11:16:40;28.10;81.20
38860;DHT22;24609;48.316;16.174;2022-10-16T11:24:35;33.30;70.70
38860;DHT22;24609;48.316;16.174;2022-10-16T11:27:04;33.90;68.20
38860;DHT22;24609;48.316;16.174;2022-10-16T11:29:35;33.90;65.10
38860;DHT22;24609;48.316;16.174;2022-10-16T11:32:24;34.30;58.20
38860;DHT22;24609;48.316;16.174;2022-10-16T11:34:57;33.70;59.50
38860;DHT22;24609;48.316;16.174;2022-10-16T11:37:32;31.50;63.60
38860;DHT22;24609;48.316;16.174;2022-10-16T11:40:09;28.90;71.70
38860;DHT22;24609;48.316;16.174;2022-10-16T11:42:48;26.80;77.50
38860;DHT22;24609;48.316;16.174;2022-10-16T11:48:14;27.80;71.70
38860;DHT22;24609;48.316;16.174;2022-10-16T11:50:53;28.10;75.10
38860;DHT22;24609;48.316;16.174;2022-10-16T11:56:00;30.00;69.10
38860;DHT22;24609;48.316;16.174;2022-10-16T11:58:36;31.30;65.70
38860;DHT22;24609;48.316;16.174;2022-10-16T12:01:18;29.30;65.20
38860;DHT22;24609;48.316;16.174;2022-10-16T12:09:26;24.60;79.80
38860;DHT22;24609;48.316;16.174;2022-10-16T12:11:53;24.00;82.40
38860;DHT22;24609;48.316;16.174;2022-10-16T12:16:55;23.70;85.20
38860;DHT22;24609;48.316;16.174;2022-10-16T12:19:22;25.20;79.10
38860;DHT22;24609;48.316;16.174;2022-10-16T12:21:49;26.10;76.50
38860;DHT22;24609;48.316;16.174;2022-10-16T12:26:55;23.60;85.10
38860;DHT22;24609;48.316;16.174;2022-10-16T12:31:55;22.20;90.50
38860;DHT22;24609;48.316;16.174;2022-10-16T12:34:29;22.10;92.80
38860;DHT22;24609;48.316;16.174;2022-10-16T12:37:31;22.20;93.80
38860;DHT22;24609;48.316;16.174;2022-10-16T12:39:55;22.40;94.80
38860;DHT22;24609;48.316;16.174;2022-10-16T12:42:23;23.00;94.90
38860;DHT22;24609;48.316;16.174;2022-10-16T12:44:49;22.30;96.00
38860;DHT22;24609;48.316;16.174;2022-10-16T12:47:37;21.70;96.80
38860;DHT22;24609;48.316;16.174;2022-10-16T12:50:04;21.90;98.20
38860;DHT22;24609;48.316;16.174;2022-10-16T12:52:48;22.20;98.90
38860;DHT22;24609;48.316;16.174;2022-10-16T12:55:19;22.10;99.70
38860;DHT22;24609;48.316;16.174;2022-10-16T13:03:22;21.80;99.90
38860;DHT22;24609;48.316;16.174;2022-10-16T13:15:11;22.20;99.90
38860;DHT22;24609;48.316;16.174;2022-10-16T13:20:38;20.70;99.90
38860;DHT22;24609;48.316;16.174;2022-10-16T13:28:40;20.80;99.90
38860;DHT22;24609;48.316;16.174;2022-10-16T13:31:17;20.90;99.90
38860;DHT22;24609;48.316;16.174;2022-10-16T13:33:50;20.60;99.90
38860;DHT22;24609;48.316;16.174;2022-10-16T13:36:25;20.50;99.90
38860;DHT22;24609;48.316;16.174;2022-10-16T13:39:15;20.40;99.90
38860;DHT22;24609;48.316;16.174;2022-10-16T13:41:43;20.40;99.90
38860;DHT22;24609;48.316;16.174;2022-10-16T13:44:19;20.30;99.90
38860;DHT22;24609;48.316;16.174;2022-10-16T13:46:45;20.40;99.90
38860;DHT22;24609;48.316;16.174;2022-10-16T13:51:38;20.30;99.90
38860;DHT22;24609;48.316;16.174;2022-10-16T13:54:04;20.30;99.90
38860;DHT22;24609;48.316;16.174;2022-10-16T13:56:31;20.40;99.90
38860;DHT22;24609;48.316;16.174;2022-10-16T13:59:05;20.30;99.90
38860;DHT22;24609;48.316;16.174;2022-10-16T14:01:40;20.20;99.90
38860;DHT22;24609;48.316;16.174;2022-10-16T14:04:08;20.20;99.90
38860;DHT22;24609;48.316;16.174;2022-10-16T14:06:36;20.10;99.90
38860;DHT22;24609;48.316;16.174;2022-10-16T14:09:14;20.10;99.90
38860;DHT22;24609;48.316;16.174;2022-10-16T14:11:50;20.10;99.90
38860;DHT22;24609;48.316;16.174;2022-10-16T14:14:19;20.00;99.90
38860;DHT22;24609;48.316;16.174;2022-10-16T14:16:45;20.00;99.90
38860;DHT22;24609;48.316;16.174;2022-10-16T14:19:28;19.90;99.90
38860;DHT22;24609;48.316;16.174;2022-10-16T14:21:54;19.80;99.90
38860;DHT22;24609;48.316;16.174;2022-10-16T14:24:33;19.80;99.90
38860;DHT22;24609;48.316;16.174;2022-10-16T14:27:00;19.90;99.90
38860;DHT22;24609;48.316;16.174;2022-10-16T14:29:28;19.90;99.90
38860;DHT22;24609;48.316;16.174;2022-10-16T14:32:00;19.80;99.90
38860;DHT22;24609;48.316;16.174;2022-10-16T14:34:34;19.70;99.90
38860;DHT22;24609;48.316;16.174;2022-10-16T14:39:50;19.60;99.90
38860;DHT22;24609;48.316;16.174;2022-10-16T14:42:18;19.60;99.90
38860;DHT22;24609;48.316;16.174;2022-10-16T14:44:45;19.50;99.90
38860;DHT22;24609;48.316;16.174;2022-10-16T14:47:16;19.50;99.90
38860;DHT22;24609;48.316;16.174;2022-10-16T14:49:47;19.40;99.90
38860;DHT22;24609;48.316;16.174;2022-10-16T14:52:14;19.30;99.90
38860;DHT22;24609;48.316;16.174;2022-10-16T14:54:40;19.30;99.90
38860;DHT22;24609;48.316;16.174;2022-10-16T14:57:19;19.30;99.90
38860;DHT22;24609;48.316;16.174;2022-10-16T14:59:46;19.30;99.90
38860;DHT22;24609;48.316;16.174;2022-10-16T15:04:53;19.30;99.90
38860;DHT22;24609;48.316;16.174;2022-10-16T15:07:18;19.20;99.90
38860;DHT22;24609;48.316;16.174;2022-10-16T15:09:44;19.20;99.90
38860;DHT22;24609;48.316;16.174;2022-10-16T15:12:10;19.00;99.90
38860;DHT22;24609;48.316;16.174;2022-10-16T15:14:35;19.00;99.90
38860;DHT22;24609;48.316;16.174;2022-10-16T15:17:02;18.90;99.90
38860;DHT22;24609;48.316;16.174;2022-10-16T15:19:27;18.90;99.90
38860;DHT22;24609;48.316;16.174;2022-10-16T15:21:53;18.80;99.90
38860;DHT22;24609;48.316;16.174;2022-10-16T15:24:19;18.70;99.90
38860;DHT22;24609;48.316;16.174;2022-10-16T15:26:44;18.70;99.90
38860;DHT22;24609;48.316;16.174;2022-10-16T15:29:15;18.60;99.90
38860;DHT22;24609;48.316;16.174;2022-10-16T15:31:40;18.40;99.90
38860;DHT22;24609;48.316;16.174;2022-10-16T15:34:10;18.30;99.90
38860;DHT22;24609;48.316;16.174;2022-10-16T15:36:37;18.30;99.90
38860;DHT22;24609;48.316;16.174;2022-10-16T15:39:13;18.20;99.90
38860;DHT22;24609;48.316;16.174;2022-10-16T15:41:39;18.00;99.90
38860;DHT22;24609;48.316;16.174;2022-10-16T15:44:04;18.00;99.90
38860;DHT22;24609;48.316;16.174;2022-10-16T15:46:30;17.90;99.90
38860;DHT22;24609;48.316;16.174;2022-10-16T15:48:58;17.80;99.90
38860;DHT22;24609;48.316;16.174;2022-10-16T15:51:24;17.80;99.90
38860;DHT22;24609;48.316;16.174;2022-10-16T15:53:50;17.60;99.90
38860;DHT22;24609;48.316;16.174;2022-10-16T15:56:17;17.50;99.90
38860;DHT22;24609;48.316;16.174;2022-10-16T15:58:43;17.50;99.90
38860;DHT22;24609;48.316;16.174;2022-10-16T16:01:09;17.30;99.90
38860;DHT22;24609;48.316;16.174;2022-10-16T16:03:37;17.30;99.90
38860;DHT22;24609;48.316;16.174;2022-10-16T16:06:05;17.20;99.90
38860;DHT22;24609;48.316;16.174;2022-10-16T16:08:33;17.10;99.90
38860;DHT22;24609;48.316;16.174;2022-10-16T16:11:07;17.00;99.90
38860;DHT22;24609;48.316;16.174;2022-10-16T16:13:34;16.80;99.90
38860;DHT22;24609;48.316;16.174;2022-10-16T16:16:00;16.70;99.90
38860;DHT22;24609;48.316;16.174;2022-10-16T16:18:26;16.70;99.90
38860;DHT22;24609;48.316;16.174;2022-10-16T16:20:52;16.60;99.90
38860;DHT22;24609;48.316;16.174;2022-10-16T16:23:18;16.60;99.90
38860;DHT22;24609;48.316;16.174;2022-10-16T16:25:45;16.50;99.90
38860;DHT22;24609;48.316;16.174;2022-10-16T16:28:10;16.50;99.90
38860;DHT22;24609;48.316;16.174;2022-10-16T16:30:40;16.50;99.90
38860;DHT22;24609;48.316;16.174;2022-10-16T16:33:06;16.30;99.90
38860;DHT22;24609;48.316;16.174;2022-10-16T16:35:31;16.20;99.90
38860;DHT22;24609;48.316;16.174;2022-10-16T16:37:57;16.10;99.90
38860;DHT22;24609;48.316;16.174;2022-10-16T16:40:23;16.00;99.90
38860;DHT22;24609;48.316;16.174;2022-10-16T16:42:49;16.20;99.90
38860;DHT22;24609;48.316;16.174;2022-10-16T16:45:14;16.10;99.90
38860;DHT22;24609;48.316;16.174;2022-10-16T16:47:40;16.10;99.90
38860;DHT22;24609;48.316;16.174;2022-10-16T16:50:06;16.10;99.90
38860;DHT22;24609;48.316;16.174;2022-10-16T16:52:34;16.10;99.90
38860;DHT22;24609;48.316;16.174;2022-10-16T16:55:00;16.20;99.90
38860;DHT22;24609;48.316;16.174;2022-10-16T16:57:26;16.10;99.90
38860;DHT22;24609;48.316;16.174;2022-10-16T16:59:52;16.00;99.90
38860;DHT22;24609;48.316;16.174;2022-10-16T17:02:17;15.90;99.90
38860;DHT22;24609;48.316;16.174;2022-10-16T17:04:43;16.10;99.90
38860;DHT22;24609;48.316;16.174;2022-10-16T17:07:09;16.10;99.90
38860;DHT22;24609;48.316;16.174;2022-10-16T17:09:34;16.00;99.90
38860;DHT22;24609;48.316;16.174;2022-10-16T17:12:00;16.10;99.90
38860;DHT22;24609;48.316;16.174;2022-10-16T17:14:26;16.10;99.90
38860;DHT22;24609;48.316;16.174;2022-10-16T17:16:52;16.10;99.90
38860;DHT22;24609;48.316;16.174;2022-10-16T17:19:19;16.20;99.90
38860;DHT22;24609;48.316;16.174;2022-10-16T17:21:47;16.20;99.90
38860;DHT22;24609;48.316;16.174;2022-10-16T17:24:13;16.40;99.90
38860;DHT22;24609;48.316;16.174;2022-10-16T17:26:40;16.60;99.90
38860;DHT22;24609;48.316;16.174;2022-10-16T17:29:10;16.70;99.90
38860;DHT22;24609;48.316;16.174;2022-10-16T17:31:37;16.70;99.90
38860;DHT22;24609;48.316;16.174;2022-10-16T17:34:05;16.50;99.90
38860;DHT22;24609;48.316;16.174;2022-10-16T17:36:33;16.40;99.90
38860;DHT22;24609;48.316;16.174;2022-10-16T17:39:04;16.50;99.90